EBCI/CRL METAR and TAF weather

Enter ICAO airport designator
Station Type Date Time Source
EBCI METAR 2019/04/25 15:50 UTC NOAA

EBCI 251550Z 17011KT 140V200 9999 SCT017 BKN025 12/09 Q1007 RERA NOSIG


Station Type Date Time Source
EBCI Decoded METAR 2019/04/25 15:50 UTC NOAA

Charleroi / Gosselies, Belgium (EBCI) 50-28N 004-27E 192M
Apr 25, 2019 - 11:50 AM EDT / 2019.04.25 1550 UTC
Wind: from the S (170 degrees) at 13 MPH (11 KT) (direction variable):0
Visibility: greater than 7 mile(s):0
Sky conditions: mostly cloudy
Temperature: 53 F (12 C)
Dew Point: 48 F (9 C)
Relative Humidity: 81%
Pressure (altimeter): 29.74 in. Hg (1007 hPa)
ob: EBCI 251550Z 17011KT 140V200 9999 SCT017 BKN025 12/09 Q1007 RERA NOSIG
cycle: 16

Station Type Date Time Source
EBCI TAF 2019/04/25 12:27 UTC NOAA

TAF EBCI 251100Z 2512/2618 17013KT 9999 FEW040TCU SCT045 PROB40
TEMPO 2512/2518 16015G28KT PROB30
TEMPO 2512/2522 4500 SHRA
TEMPO 2602/2606 BKN005

Example: see airport list